createdAt,value
2019-04-12T00:02:11.496Z,97278.86
2019-04-12T00:04:38.409Z,97285.14
2019-04-12T00:07:05.022Z,97282.24
2019-04-12T00:09:31.690Z,97279.66
2019-04-12T00:11:58.459Z,97284.59
2019-04-12T00:14:25.472Z,97283.23
2019-04-12T00:16:52.034Z,97280.91
2019-04-12T00:19:18.814Z,97283.99
2019-04-12T00:21:46.410Z,97279.05
2019-04-12T00:24:14.091Z,97277.69
2019-04-12T00:26:42.106Z,97281.69
2019-04-12T00:29:08.758Z,97280.37
2019-04-12T00:31:35.704Z,97279.17
2019-04-12T00:34:02.543Z,97278.48
2019-04-12T00:36:29.164Z,97274.09
2019-04-12T00:38:58.404Z,97283.95
2019-04-12T00:41:24.494Z,97281.22
2019-04-12T00:43:51.386Z,97277.67
2019-04-12T00:46:18.091Z,97281.48
2019-04-12T00:48:44.877Z,97278.05
2019-04-12T00:51:12.158Z,97283.43
2019-04-12T00:53:39.411Z,97276.62
2019-04-12T00:56:06.057Z,97274.65
2019-04-12T00:58:32.679Z,97278.50
2019-04-12T01:00:59.396Z,97282.53
2019-04-12T01:03:25.997Z,97282.30
2019-04-12T01:05:52.619Z,97284.75
2019-04-12T01:08:21.109Z,97284.42
2019-04-12T01:10:47.829Z,97289.39
2019-04-12T01:13:14.725Z,97289.75
2019-04-12T01:15:41.362Z,97287.02
2019-04-12T01:18:08.231Z,97288.05
2019-04-12T01:20:36.481Z,97294.91
2019-04-12T01:23:03.276Z,97293.66
2019-04-12T01:25:29.880Z,97292.55
2019-04-12T01:27:56.565Z,97286.55
2019-04-12T01:30:24.383Z,97286.80
2019-04-12T01:32:51.125Z,97290.59
2019-04-12T01:35:19.061Z,97294.03
2019-04-12T01:37:45.667Z,97296.02
2019-04-12T01:40:12.249Z,97288.37
2019-04-12T01:42:38.978Z,97296.34
2019-04-12T01:47:51.147Z,97298.62
2019-04-12T01:50:17.742Z,97304.45
2019-04-12T01:52:44.420Z,97305.92
2019-04-12T01:55:11.688Z,97309.16
2019-04-12T01:57:38.621Z,97298.20
2019-04-12T02:00:05.821Z,97293.89
2019-04-12T02:02:32.448Z,97295.84
2019-04-12T02:04:59.125Z,97293.06
2019-04-12T02:07:25.719Z,97292.34
2019-04-12T02:09:52.791Z,97290.12
2019-04-12T02:12:19.728Z,97285.63
2019-04-12T02:14:46.601Z,97291.64
2019-04-12T02:17:14.946Z,97291.55
2019-04-12T02:19:41.527Z,97293.36
2019-04-12T02:22:08.147Z,97290.09
2019-04-12T02:24:35.049Z,97291.26
2019-04-12T02:27:01.709Z,97295.94
2019-04-12T02:29:28.575Z,97286.56
2019-04-12T02:31:55.360Z,97292.55
2019-04-12T02:34:22.324Z,97286.09
2019-04-12T02:36:48.953Z,97279.33
2019-04-12T02:39:16.122Z,97277.42
2019-04-12T02:41:42.803Z,97282.25
2019-04-12T02:44:09.485Z,97286.13
2019-04-12T02:46:36.094Z,97281.19
2019-04-12T02:49:02.992Z,97276.01
2019-04-12T02:51:29.591Z,97285.14
2019-04-12T02:53:57.281Z,97274.32
2019-04-12T02:56:23.945Z,97274.63
2019-04-12T02:58:50.555Z,97275.53
2019-04-12T03:01:17.438Z,97279.87
2019-04-12T03:03:44.165Z,97277.28
2019-04-12T03:06:11.370Z,97277.44
2019-04-12T03:08:37.965Z,97275.94
2019-04-12T03:11:05.076Z,97277.52
2019-04-12T03:13:31.676Z,97281.09
2019-04-12T03:15:58.543Z,97276.42
2019-04-12T03:18:25.154Z,97280.91
2019-04-12T03:20:51.817Z,97280.58
2019-04-12T03:23:22.409Z,97280.87
2019-04-12T03:25:53.308Z,97277.08
2019-04-12T03:28:17.698Z,97284.05
2019-04-12T03:30:44.692Z,97279.04
2019-04-12T03:33:11.255Z,97280.86
2019-04-12T03:35:37.939Z,97280.37
2019-04-12T03:38:04.567Z,97289.70
2019-04-12T03:40:31.195Z,97281.48
2019-04-12T03:42:58.089Z,97291.95
2019-04-12T03:45:25.546Z,97290.45
2019-04-12T03:47:52.142Z,97286.56
2019-04-12T03:50:18.729Z,97291.11
2019-04-12T03:52:45.330Z,97282.17
2019-04-12T03:55:12.214Z,97290.03
2019-04-12T03:57:38.857Z,97295.03
2019-04-12T04:00:07.860Z,97299.40
2019-04-12T04:02:34.738Z,97295.98
2019-04-12T04:05:01.665Z,97293.49
2019-04-12T04:07:28.861Z,97295.49
2019-04-12T04:09:55.447Z,97291.88
2019-04-12T04:12:22.177Z,97299.38
2019-04-12T04:14:48.909Z,97293.33
2019-04-12T04:17:15.491Z,97292.14
2019-04-12T04:19:42.359Z,97292.95
2019-04-12T04:22:09.043Z,97297.73
2019-04-12T04:24:35.817Z,97294.64
2019-04-12T04:27:02.632Z,97293.09
2019-04-12T04:29:29.520Z,97284.83
2019-04-12T04:31:56.507Z,97287.97
2019-04-12T04:34:23.101Z,97288.15
2019-04-12T04:36:49.877Z,97289.11
2019-04-12T04:39:16.746Z,97292.32
2019-04-12T04:41:43.340Z,97295.23
2019-04-12T04:44:10.292Z,97295.38
2019-04-12T04:49:20.873Z,97299.60
2019-04-12T04:51:48.010Z,97300.23
2019-04-12T04:54:14.886Z,97298.92
2019-04-12T04:56:41.624Z,97298.92
2019-04-12T04:59:08.248Z,97305.23
2019-04-12T05:01:35.106Z,97304.70
2019-04-12T05:04:01.683Z,97309.51
2019-04-12T05:06:29.602Z,97307.86
2019-04-12T05:08:56.175Z,97306.89
2019-04-12T05:11:22.765Z,97303.97
2019-04-12T05:13:49.395Z,97309.00
2019-04-12T05:16:15.951Z,97314.68
2019-04-12T05:18:42.876Z,97315.00
2019-04-12T05:21:09.491Z,97311.71
2019-04-12T05:23:36.070Z,97320.59
2019-04-12T05:26:02.663Z,97315.88
2019-04-12T05:28:29.500Z,97311.64
2019-04-12T05:30:56.411Z,97311.30
2019-04-12T05:33:22.995Z,97314.64
2019-04-12T05:35:49.746Z,97307.68
2019-04-12T05:38:16.624Z,97317.02
2019-04-12T05:40:43.308Z,97308.26
2019-04-12T05:43:10.152Z,97316.78
2019-04-12T05:45:36.757Z,97313.36
2019-04-12T05:48:03.353Z,97312.26
2019-04-12T05:50:30.948Z,97306.90
2019-04-12T05:52:58.558Z,97312.51
2019-04-12T05:55:26.132Z,97305.23
2019-04-12T05:57:53.299Z,97315.73
2019-04-12T06:00:19.936Z,97314.51
2019-04-12T06:02:46.757Z,97312.23
2019-04-12T06:05:13.494Z,97310.72
2019-04-12T06:07:40.462Z,97311.61
2019-04-12T06:10:07.067Z,97313.66
2019-04-12T06:12:33.701Z,97310.77
2019-04-12T06:15:00.603Z,97312.78
2019-04-12T06:17:27.454Z,97314.39
2019-04-12T06:19:54.338Z,97314.64
2019-04-12T06:22:22.418Z,97314.31
2019-04-12T06:24:51.032Z,97312.00
2019-04-12T06:27:20.664Z,97309.03
2019-04-12T06:32:36.614Z,97300.22
2019-04-12T06:37:52.475Z,97299.31
2019-04-12T06:40:20.748Z,97301.72
2019-04-12T06:42:51.915Z,97301.57
2019-04-12T06:45:19.712Z,97301.05
2019-04-12T06:47:47.382Z,97300.41
2019-04-12T06:50:18.449Z,97300.22
2019-04-12T06:52:47.759Z,97303.84
2019-04-12T06:58:05.664Z,97298.86
2019-04-12T07:00:34.675Z,97302.42
2019-04-12T07:03:10.408Z,97303.15
2019-04-12T07:05:37.513Z,97305.16
2019-04-12T07:08:08.687Z,97303.66
2019-04-12T07:10:35.425Z,97301.20
2019-04-12T07:13:02.312Z,97303.41
2019-04-12T07:15:29.031Z,97301.91
2019-04-12T07:17:56.520Z,97301.61
2019-04-12T07:20:23.630Z,97306.89
2019-04-12T07:22:50.220Z,97297.72
2019-04-12T07:25:17.202Z,97297.49
2019-04-12T07:27:44.038Z,97294.45
2019-04-12T07:30:11.206Z,97299.44
2019-04-12T07:32:38.119Z,97305.78
2019-04-12T07:35:04.725Z,97300.02
2019-04-12T07:37:31.528Z,97300.94
2019-04-12T07:39:58.106Z,97302.73
2019-04-12T07:42:24.748Z,97306.23
2019-04-12T07:47:27.387Z,97304.42
2019-04-12T07:49:53.965Z,97308.20
2019-04-12T07:52:20.757Z,97307.38
2019-04-12T07:54:47.637Z,97305.39
2019-04-12T07:57:14.253Z,97311.98
2019-04-12T07:59:42.290Z,97310.66
2019-04-12T08:02:12.927Z,97305.25
2019-04-12T08:04:39.996Z,97304.66
2019-04-12T08:07:06.846Z,97304.04
2019-04-12T08:09:33.426Z,97299.44
2019-04-12T08:12:00.364Z,97307.06
2019-04-12T08:14:27.040Z,97303.67
2019-04-12T08:16:53.630Z,97308.44
2019-04-12T08:19:20.617Z,97308.73
2019-04-12T08:21:47.201Z,97307.98
2019-04-12T08:24:14.070Z,97302.66
2019-04-12T08:26:40.831Z,97314.40
2019-04-12T08:29:07.683Z,97313.20
2019-04-12T08:31:34.286Z,97306.61
2019-04-12T08:34:02.154Z,97324.07
2019-04-12T08:36:28.807Z,97318.59
2019-04-12T08:38:55.441Z,97313.84
2019-04-12T08:41:22.318Z,97311.98
2019-04-12T08:43:51.285Z,97310.25
2019-04-12T08:46:19.091Z,97311.89
2019-04-12T08:48:45.667Z,97310.80
2019-04-12T08:51:22.171Z,97308.92
2019-04-12T08:53:40.642Z,97309.56
2019-04-12T08:56:07.386Z,97305.66
2019-04-12T08:58:34.090Z,97306.61
2019-04-12T09:01:01.027Z,97311.50
2019-04-12T09:03:27.722Z,97314.58
2019-04-12T09:05:54.676Z,97302.92
2019-04-12T09:08:21.585Z,97303.58
2019-04-12T09:10:48.218Z,97313.61
2019-04-12T09:13:15.283Z,97314.62
2019-04-12T09:15:42.027Z,97312.35
2019-04-12T09:18:08.901Z,97317.23
2019-04-12T09:20:35.604Z,97311.13
2019-04-12T09:23:02.531Z,97313.13
2019-04-12T09:25:29.135Z,97314.62
2019-04-12T09:27:55.830Z,97309.00
2019-04-12T09:30:22.781Z,97311.81
2019-04-12T09:32:49.499Z,97308.45
2019-04-12T09:35:16.155Z,97301.64
2019-04-12T09:37:43.091Z,97288.08
2019-04-12T09:40:10.687Z,97294.16
2019-04-12T09:42:37.290Z,97292.41
2019-04-12T09:47:50.490Z,97295.50
2019-04-12T09:50:17.164Z,97298.47
2019-04-12T09:52:44.038Z,97299.98
2019-04-12T09:55:10.940Z,97306.86
2019-04-12T09:57:37.564Z,97310.67
2019-04-12T10:00:04.128Z,97310.67
2019-04-12T10:02:30.755Z,97309.73
2019-04-12T10:04:57.598Z,97307.49
2019-04-12T10:07:24.265Z,97307.66
2019-04-12T10:09:50.877Z,97307.07
2019-04-12T10:12:19.636Z,97303.97
2019-04-12T10:14:45.765Z,97304.94
2019-04-12T10:17:13.002Z,97303.27
2019-04-12T10:19:39.864Z,97303.75
2019-04-12T10:22:08.850Z,97305.58
2019-04-12T10:24:35.182Z,97300.37
2019-04-12T10:27:01.804Z,97302.19
2019-04-12T10:29:28.404Z,97302.92
2019-04-12T10:31:56.343Z,97301.00
2019-04-12T10:34:25.366Z,97300.95
2019-04-12T10:36:51.810Z,97297.86
2019-04-12T10:39:18.372Z,97295.44
2019-04-12T10:41:45.209Z,97291.98
2019-04-12T10:44:12.149Z,97294.64
2019-04-12T10:46:39.437Z,97297.98
2019-04-12T10:49:06.012Z,97301.47
2019-04-12T10:51:32.614Z,97294.46
2019-04-12T10:53:59.371Z,97288.53
2019-04-12T10:56:25.964Z,97290.03
2019-04-12T10:59:02.761Z,97291.45
2019-04-12T11:01:23.271Z,97284.58
2019-04-12T11:03:49.991Z,97284.86
2019-04-12T11:06:29.488Z,97283.95
2019-04-12T11:08:45.143Z,97275.24
2019-04-12T11:11:11.727Z,97275.58
2019-04-12T11:13:38.611Z,97271.94
2019-04-12T11:16:06.106Z,97277.00
2019-04-12T11:18:33.000Z,97274.66
2019-04-12T11:20:59.602Z,97269.28
2019-04-12T11:23:26.701Z,97268.76
2019-04-12T11:25:53.300Z,97258.30
2019-04-12T11:28:19.928Z,97263.20
2019-04-12T11:30:46.548Z,97259.34
2019-04-12T11:33:13.151Z,97262.73
2019-04-12T11:35:39.803Z,97251.81
2019-04-12T11:38:06.712Z,97262.83
2019-04-12T11:40:33.299Z,97251.91
2019-04-12T11:43:10.861Z,97248.69
2019-04-12T11:45:40.785Z,97250.23
2019-04-12T11:48:07.442Z,97244.53
2019-04-12T11:50:34.021Z,97246.81
2019-04-12T11:53:00.651Z,97235.52
2019-04-12T11:55:27.243Z,97232.37
2019-04-12T11:57:54.038Z,97234.64
2019-04-12T12:00:20.671Z,97231.87
2019-04-12T12:02:47.292Z,97236.59
2019-04-12T12:05:14.011Z,97234.09
2019-04-12T12:07:49.886Z,97235.59
2019-04-12T12:10:09.906Z,97235.23
2019-04-12T12:12:36.507Z,97238.66
2019-04-12T12:15:03.174Z,97238.27
2019-04-12T12:17:29.858Z,97233.31
2019-04-12T12:19:56.939Z,97234.25
2019-04-12T12:22:23.549Z,97235.33
2019-04-12T12:24:50.427Z,97229.66
2019-04-12T12:27:17.193Z,97232.20
2019-04-12T12:29:47.339Z,97229.98
2019-04-12T12:32:14.285Z,97232.66
2019-04-12T12:34:41.047Z,97236.97
2019-04-12T12:37:07.981Z,97236.64
2019-04-12T12:39:35.609Z,97238.98
2019-04-12T12:42:02.510Z,97236.89
2019-04-12T12:44:29.238Z,97230.11
2019-04-12T12:46:55.979Z,97231.18
2019-04-12T12:49:22.639Z,97231.31
2019-04-12T12:51:49.395Z,97231.18
2019-04-12T12:54:16.016Z,97231.38
2019-04-12T12:56:43.670Z,97232.99
2019-04-12T12:59:11.219Z,97232.73
2019-04-12T13:01:37.829Z,97227.00
2019-04-12T13:04:05.435Z,97223.33
2019-04-12T13:06:34.342Z,97229.22
2019-04-12T13:09:01.998Z,97227.80
2019-04-12T13:11:29.575Z,97224.95
2019-04-12T13:13:57.046Z,97226.84
2019-04-12T13:16:24.651Z,97226.52
2019-04-12T13:18:51.233Z,97231.61
2019-04-12T13:21:18.587Z,97231.08
2019-04-12T13:23:46.233Z,97227.25
2019-04-12T13:26:12.813Z,97229.07
2019-04-12T13:28:39.874Z,97225.80
2019-04-12T13:31:06.841Z,97227.80
2019-04-12T13:33:33.425Z,97226.72
2019-04-12T13:36:00.116Z,97219.98
2019-04-12T13:38:27.329Z,97212.92
2019-04-12T13:40:54.926Z,97215.89
2019-04-12T13:43:21.954Z,97214.08
2019-04-12T13:48:36.561Z,97223.92
2019-04-12T13:51:09.263Z,97220.41
2019-04-12T13:53:47.384Z,97218.37
2019-04-12T13:56:10.306Z,97214.98
2019-04-12T13:58:38.762Z,97213.11
2019-04-12T14:03:37.935Z,97218.30
2019-04-12T14:06:04.513Z,97220.88
2019-04-12T14:08:31.203Z,97212.66
2019-04-12T14:10:58.227Z,97215.14
2019-04-12T14:13:24.820Z,97216.43
2019-04-12T14:15:52.050Z,97218.10
2019-04-12T14:18:18.653Z,97217.86
2019-04-12T14:20:45.617Z,97214.23
2019-04-12T14:23:12.230Z,97215.10
2019-04-12T14:25:38.842Z,97211.59
2019-04-12T14:28:06.175Z,97213.50
2019-04-12T14:30:33.805Z,97219.67
2019-04-12T14:33:00.859Z,97221.76
2019-04-12T14:35:28.045Z,97219.19
2019-04-12T14:37:54.717Z,97214.78
2019-04-12T14:40:22.534Z,97215.09
2019-04-12T14:42:49.262Z,97212.42
2019-04-12T14:45:15.926Z,97214.92
2019-04-12T14:47:44.667Z,97216.19
2019-04-12T14:50:11.305Z,97221.54
2019-04-12T14:52:38.161Z,97213.95
2019-04-12T14:55:04.763Z,97212.97
2019-04-12T14:57:31.412Z,97218.20
2019-04-12T14:59:58.311Z,97221.17
2019-04-12T15:02:24.917Z,97218.52
2019-04-12T15:04:51.816Z,97221.76
2019-04-12T15:07:18.416Z,97218.39
2019-04-12T15:09:45.106Z,97221.09
2019-04-12T15:12:11.694Z,97213.45
2019-04-12T15:14:38.278Z,97224.77
2019-04-12T15:17:05.215Z,97224.67
2019-04-12T15:19:31.823Z,97227.63
2019-04-12T15:21:59.294Z,97226.72
2019-04-12T15:24:26.106Z,97229.48
2019-04-12T15:26:52.704Z,97227.80
2019-04-12T15:29:19.288Z,97225.38
2019-04-12T15:31:45.929Z,97230.77
2019-04-12T15:34:14.141Z,97224.39
2019-04-12T15:36:40.718Z,97231.23
2019-04-12T15:39:07.323Z,97227.56
2019-04-12T15:41:33.944Z,97230.00
2019-04-12T15:46:46.435Z,97229.84
2019-04-12T15:49:14.036Z,97229.55
2019-04-12T15:51:41.209Z,97236.64
2019-04-12T15:54:08.088Z,97241.43
2019-04-12T15:56:35.729Z,97239.19
2019-04-12T15:59:09.276Z,97243.10
2019-04-12T16:01:35.833Z,97244.67
2019-04-12T16:04:03.459Z,97244.75
2019-04-12T16:06:31.085Z,97247.69
2019-04-12T16:08:57.983Z,97245.62
2019-04-12T16:11:27.094Z,97250.25
2019-04-12T16:13:54.787Z,97250.17
2019-04-12T16:16:23.793Z,97253.97
2019-04-12T16:18:51.393Z,97250.09
2019-04-12T16:21:17.975Z,97256.07
2019-04-12T16:23:44.783Z,97256.56
2019-04-12T16:26:12.385Z,97258.23
2019-04-12T16:28:43.276Z,97266.42
2019-04-12T16:31:23.002Z,97262.13
2019-04-12T16:33:40.016Z,97271.55
2019-04-12T16:36:07.751Z,97269.52
2019-04-12T16:38:37.181Z,97273.17
2019-04-12T16:41:03.772Z,97272.70
2019-04-12T16:43:30.637Z,97272.66
2019-04-12T16:45:57.438Z,97274.24
2019-04-12T16:48:24.019Z,97272.67
2019-04-12T16:50:50.934Z,97281.53
2019-04-12T16:53:17.577Z,97278.48
2019-04-12T16:55:44.349Z,97277.72
2019-04-12T16:58:10.933Z,97282.13
2019-04-12T17:00:39.097Z,97292.50
2019-04-12T17:03:06.761Z,97292.69
2019-04-12T17:05:36.164Z,97288.13
2019-04-12T17:08:03.164Z,97294.38
2019-04-12T17:10:30.761Z,97291.17
2019-04-12T17:12:58.376Z,97298.49
2019-04-12T17:15:25.766Z,97291.64
2019-04-12T17:17:52.693Z,97303.50
2019-04-12T17:20:19.879Z,97305.13
2019-04-12T17:22:46.628Z,97300.44
2019-04-12T17:25:13.685Z,97300.70
2019-04-12T17:27:41.281Z,97311.21
2019-04-12T17:30:08.652Z,97305.66
2019-04-12T17:32:36.852Z,97311.33
2019-04-12T17:35:04.449Z,97315.05
2019-04-12T17:37:33.043Z,97316.14
2019-04-12T17:39:59.935Z,97318.92
2019-04-12T17:42:27.530Z,97318.83
2019-04-12T17:44:55.504Z,97314.48
2019-04-12T17:47:22.387Z,97315.67
2019-04-12T17:49:49.282Z,97312.16
2019-04-12T17:52:16.000Z,97313.52
2019-04-12T17:54:42.601Z,97311.61
2019-04-12T17:57:09.177Z,97317.60
2019-04-12T17:59:36.129Z,97328.47
2019-04-12T18:02:04.133Z,97325.59
2019-04-12T18:04:32.399Z,97332.83
2019-04-12T18:06:59.335Z,97342.47
2019-04-12T18:09:26.202Z,97338.52
2019-04-12T18:11:53.803Z,97342.77
2019-04-12T18:14:21.149Z,97344.77
2019-04-12T18:16:51.198Z,97353.70
2019-04-12T18:19:17.511Z,97348.53
2019-04-12T18:21:44.894Z,97353.72
2019-04-12T18:24:11.492Z,97354.91
2019-04-12T18:26:38.366Z,97356.36
2019-04-12T18:29:04.999Z,97355.42
2019-04-12T18:31:31.660Z,97365.89
2019-04-12T18:33:58.262Z,97374.11
2019-04-12T18:41:30.765Z,97379.32
2019-04-12T18:44:01.053Z,97380.56
2019-04-12T18:46:28.427Z,97383.30
2019-04-12T18:48:55.086Z,97389.78
2019-04-12T18:51:21.675Z,97394.45
2019-04-12T18:53:48.305Z,97392.60
2019-04-12T18:56:14.952Z,97399.71
2019-04-12T18:58:41.535Z,97399.46
2019-04-12T19:01:08.409Z,97400.30
2019-04-12T19:03:34.988Z,97397.16
2019-04-12T19:06:13.901Z,97399.61
2019-04-12T19:08:30.239Z,97402.48
2019-04-12T19:10:56.843Z,97408.22
2019-04-12T19:13:23.467Z,97405.58
2019-04-12T19:15:50.077Z,97402.22
2019-04-12T19:18:16.701Z,97403.23
2019-04-12T19:20:43.283Z,97413.56
2019-04-12T19:23:09.884Z,97403.08
2019-04-12T19:25:36.789Z,97403.08
2019-04-12T19:30:49.427Z,97404.45
2019-04-12T19:33:16.290Z,97410.08
2019-04-12T19:35:43.096Z,97403.31
2019-04-12T19:38:09.729Z,97409.16
2019-04-12T19:40:36.316Z,97408.30
2019-04-12T19:43:02.916Z,97409.72
2019-04-12T19:45:38.519Z,97411.02
2019-04-12T19:48:04.577Z,97411.31
2019-04-12T19:50:35.561Z,97407.49
2019-04-12T19:53:07.272Z,97410.88
2019-04-12T19:55:33.822Z,97414.96
2019-04-12T20:00:47.275Z,97411.61
2019-04-12T20:03:25.578Z,97408.71
2019-04-12T20:05:56.396Z,97412.37
2019-04-12T20:08:29.650Z,97413.56
2019-04-12T20:10:56.846Z,97419.06
2019-04-12T20:13:24.590Z,97420.09
2019-04-12T20:15:56.345Z,97413.55
2019-04-12T20:18:25.327Z,97417.92
2019-04-12T20:20:52.154Z,97421.81
2019-04-12T20:23:22.862Z,97414.33
2019-04-12T20:25:51.499Z,97418.63
2019-04-12T20:28:22.936Z,97412.47
2019-04-12T20:30:52.034Z,97414.26
2019-04-12T20:33:20.905Z,97420.23
2019-04-12T20:36:05.050Z,97414.38
2019-04-12T20:38:34.436Z,97411.98
2019-04-12T20:41:03.337Z,97418.63
2019-04-12T20:43:30.961Z,97418.45
2019-04-12T20:46:02.259Z,97411.63
2019-04-12T20:48:31.255Z,97410.66
2019-04-12T20:51:00.846Z,97417.06
2019-04-12T20:53:27.852Z,97413.16
2019-04-12T20:55:54.694Z,97415.22
2019-04-12T20:58:25.695Z,97417.20
2019-04-12T21:03:41.915Z,97414.49
2019-04-12T21:06:10.866Z,97415.14
2019-04-12T21:08:40.755Z,97418.05
2019-04-12T21:11:09.783Z,97414.09
2019-04-12T21:13:37.418Z,97411.82
2019-04-12T21:16:05.031Z,97410.63
2019-04-12T21:21:18.487Z,97410.95
2019-04-12T21:23:45.541Z,97410.52
2019-04-12T21:26:16.388Z,97415.27
2019-04-12T21:29:02.894Z,97420.31
2019-04-12T21:31:30.742Z,97420.45
2019-04-12T21:33:58.229Z,97416.89
2019-04-12T21:36:27.408Z,97426.58
2019-04-12T21:38:57.280Z,97422.64
2019-04-12T21:41:24.320Z,97421.59
2019-04-12T21:46:38.744Z,97419.45
2019-04-12T21:49:08.811Z,97427.61
2019-04-12T21:51:41.278Z,97427.13
2019-04-12T21:54:11.185Z,97422.46
2019-04-12T21:56:42.658Z,97417.13
2019-04-12T21:59:10.240Z,97425.73
2019-04-12T22:01:38.139Z,97428.36
2019-04-12T22:04:10.386Z,97423.09
2019-04-12T22:06:37.424Z,97422.86
2019-04-12T22:09:08.837Z,97422.54
2019-04-12T22:11:41.044Z,97423.97
2019-04-12T22:14:14.474Z,97432.73
2019-04-12T22:16:38.574Z,97424.09
2019-04-12T22:19:08.286Z,97432.23
2019-04-12T22:21:40.274Z,97427.30
2019-04-12T22:24:09.100Z,97432.44
2019-04-12T22:26:42.240Z,97426.67
2019-04-12T22:29:11.404Z,97425.33
2019-04-12T22:31:38.585Z,97426.88
2019-04-12T22:34:14.286Z,97424.13
2019-04-12T22:36:42.995Z,97428.90
2019-04-12T22:39:23.453Z,97430.17
2019-04-12T22:41:42.127Z,97432.11
2019-04-12T22:44:09.732Z,97424.92
2019-04-12T22:46:44.285Z,97428.36
2019-04-12T22:49:13.480Z,97423.36
2019-04-12T22:51:41.089Z,97429.69
2019-04-12T22:54:10.465Z,97429.38
2019-04-12T22:56:43.716Z,97435.72
2019-04-12T23:01:40.498Z,97427.89
2019-04-12T23:06:54.693Z,97424.39
2019-04-12T23:09:23.604Z,97429.95
2019-04-12T23:11:50.429Z,97430.92
2019-04-12T23:14:17.398Z,97427.51
2019-04-12T23:16:48.248Z,97430.44
2019-04-12T23:19:17.714Z,97425.89
2019-04-12T23:21:47.801Z,97420.16
2019-04-12T23:24:19.221Z,97426.54
2019-04-12T23:26:52.444Z,97424.41
2019-04-12T23:29:19.469Z,97433.72
2019-04-12T23:34:32.751Z,97428.05
2019-04-12T23:37:00.979Z,97424.97
2019-04-12T23:39:29.986Z,97423.11
2019-04-12T23:42:00.999Z,97416.45
2019-04-12T23:44:29.936Z,97418.70
2019-04-12T23:47:00.700Z,97425.36
2019-04-12T23:49:32.146Z,97429.72
2019-04-12T23:52:01.902Z,97428.70
2019-04-12T23:54:31.114Z,97427.28
2019-04-12T23:56:59.075Z,97426.81
2019-04-12T23:59:30.189Z,97428.48
